CA54 weather

33 Strip
Tracy, California, United States

Public forecast

Using degrees Fahrenheit for public forecast. Weather courtesy of forecast.io.

Closest aviation weather report (METAR) to 33 Strip

Closest report is Stockton Metropolitan Airport, 14.1 nm (26.1 km) NNE. Retrieved 2020/07/04 13:55 UTC (29 minutes ago):

KSCK 041355Z AUTO 34004KT 10SM CLR 18/09 A2999 RMK AO2 SLP156 T01780089

Closest aviation forecast (TAF) to 33 Strip

Closest forecast is Stockton Metropolitan Airport, 14.1 nm (26.1 km) NNE. Retrieved 2020/07/04 12:22 UTC (2 hours ago):

TAF KSCK 041120Z 0412/0512 30008KT P6SM SKC